createdAt,value
2024-01-24T00:00:19.855Z,5.60
2024-01-24T00:13:19.863Z,5.50
2024-01-24T00:26:19.885Z,5.50
2024-01-24T00:39:19.916Z,5.00
2024-01-24T00:52:19.900Z,4.95
2024-01-24T01:05:19.880Z,4.20
2024-01-24T01:18:19.878Z,4.40
2024-01-24T01:31:19.915Z,3.60
2024-01-24T01:44:19.918Z,3.70
2024-01-24T01:57:19.921Z,3.60
2024-01-24T02:10:19.918Z,3.15
2024-01-24T02:23:19.944Z,3.00
2024-01-24T02:36:19.972Z,2.80
2024-01-24T02:49:19.977Z,2.60
2024-01-24T03:02:19.977Z,2.50
2024-01-24T03:15:19.996Z,2.30
2024-01-24T03:28:19.968Z,2.30
2024-01-24T03:41:20.036Z,2.20
2024-01-24T03:54:20.023Z,2.20
2024-01-24T04:07:20.076Z,2.00
2024-01-24T04:20:20.040Z,2.00
2024-01-24T04:33:20.112Z,2.00
2024-01-24T04:46:20.059Z,1.80
2024-01-24T04:59:20.042Z,1.60
2024-01-24T05:12:20.089Z,1.80
2024-01-24T05:25:20.060Z,1.60
2024-01-24T05:38:20.071Z,1.70
2024-01-24T05:51:20.126Z,1.70
2024-01-24T06:04:20.165Z,2.10
2024-01-24T06:17:20.101Z,2.80
2024-01-24T06:30:21.986Z,3.20
2024-01-24T06:44:20.139Z,3.60
2024-01-24T06:58:20.126Z,3.70
2024-01-24T07:12:20.199Z,4.40
2024-01-24T07:26:20.137Z,4.70
2024-01-24T07:40:20.170Z,4.50
2024-01-24T07:54:20.250Z,4.50
2024-01-24T08:08:20.195Z,4.50
2024-01-24T08:22:20.190Z,4.40
2024-01-24T08:36:20.478Z,4.50
2024-01-24T08:50:20.222Z,4.30
2024-01-24T09:04:20.251Z,4.40
2024-01-24T09:18:20.472Z,4.20
2024-01-24T09:32:20.240Z,4.60
2024-01-24T09:46:20.269Z,5.10
2024-01-24T10:00:20.282Z,8.40
2024-01-24T10:14:20.302Z,9.60
2024-01-24T10:28:20.319Z,10.30
2024-01-24T10:42:20.387Z,10.40
2024-01-24T10:56:20.331Z,10.25
2024-01-24T11:10:20.450Z,10.10
2024-01-24T11:24:20.371Z,10.00
2024-01-24T11:38:24.849Z,8.70
2024-01-24T11:52:20.377Z,9.00
2024-01-24T12:06:20.607Z,8.60
2024-01-24T12:20:20.450Z,8.30
2024-01-24T12:34:20.405Z,7.70
2024-01-24T12:48:22.957Z,7.80
2024-01-24T13:03:22.261Z,7.20
2024-01-24T13:18:20.599Z,10.20
2024-01-24T13:33:20.827Z,11.40
2024-01-24T13:47:20.705Z,12.10
2024-01-24T14:01:20.503Z,13.10
2024-01-24T14:15:24.613Z,11.70
2024-01-24T14:29:20.531Z,11.25
2024-01-24T14:43:20.551Z,10.40
2024-01-24T14:57:20.666Z,9.55
2024-01-24T15:11:20.751Z,9.20
2024-01-24T15:25:20.608Z,9.15
2024-01-24T15:39:21.075Z,8.30
2024-01-24T15:53:20.665Z,8.45
2024-01-24T16:07:21.097Z,8.50
2024-01-24T16:21:20.610Z,7.95
2024-01-24T16:35:20.831Z,7.60
2024-01-24T16:49:20.755Z,8.05
2024-01-24T17:02:21.095Z,7.60
2024-01-24T17:15:20.643Z,7.80
2024-01-24T17:28:21.213Z,7.80
2024-01-24T17:41:20.641Z,7.70
2024-01-24T17:54:21.511Z,7.10
2024-01-24T18:07:22.559Z,7.50
2024-01-24T18:21:20.692Z,7.70
2024-01-24T18:34:20.721Z,8.00
2024-01-24T18:47:22.263Z,8.20
2024-01-24T19:00:23.726Z,7.90
2024-01-24T19:13:23.307Z,7.80
2024-01-24T19:26:21.437Z,8.10
2024-01-24T19:39:32.700Z,8.20
2024-01-24T19:52:22.260Z,7.90
2024-01-24T20:05:22.148Z,8.30
2024-01-24T20:18:23.339Z,8.60
2024-01-24T20:31:20.809Z,8.80
2024-01-24T20:44:22.176Z,9.70
2024-01-24T20:57:20.907Z,9.30
2024-01-24T21:10:22.355Z,9.20
2024-01-24T21:23:20.866Z,9.50
2024-01-24T21:36:22.157Z,9.10
2024-01-24T21:49:22.330Z,9.60
2024-01-24T22:02:23.045Z,9.60
2024-01-24T22:15:22.163Z,9.60
2024-01-24T22:28:21.968Z,8.90
2024-01-24T22:41:22.155Z,9.20
2024-01-24T22:54:22.131Z,8.90
2024-01-24T23:07:21.037Z,9.00
2024-01-24T23:20:21.677Z,8.40
2024-01-24T23:33:21.104Z,8.45
2024-01-24T23:46:20.918Z,8.80
2024-01-24T23:59:20.914Z,8.00
